Time;durP1;ratioP1;P1;durP2;ratioP2;P2;SDS_P1;SDS_P2;PMS_P1;PMS_P2;Temp;Humidity;BMP_temperature;BMP_pressure;BME280_temperature;BME280_humidity;BME280_pressure;Samples;Min_cycle;Max_cycle;Signal;HPM_P1;HPM_P2
2021/03/11 00:00:06;;;;;;;4.50;3.90;;;;;;;6.48;64.89;99399.28;5015086;28;20172;-78
2021/03/11 00:02:32;;;;;;;4.47;3.60;;;;;;;6.16;64.83;99363.22;5014802;28;20034;-75
2021/03/11 00:04:57;;;;;;;4.77;3.80;;;;;;;6.18;64.54;99377.81;4997571;28;20040;-78
2021/03/11 00:07:23;;;;;;;4.10;3.60;;;;;;;6.44;64.45;99398.78;5014760;28;20030;-76
2021/03/11 00:09:48;;;;;;;4.07;3.67;;;;;;;6.41;64.78;99399.09;5014909;28;20033;-76
2021/03/11 00:12:13;;;;;;;4.43;3.90;;;;;;;6.28;64.88;99385.56;4997432;28;20030;-75
2021/03/11 00:14:39;;;;;;;3.63;3.33;;;;;;;6.24;65.02;99381.59;5014780;28;20145;-76
2021/03/11 00:17:05;;;;;;;4.00;2.80;;;;;;;5.97;64.40;99328.38;5015921;28;20470;-77
2021/03/11 00:19:31;;;;;;;3.50;3.20;;;;;;;5.95;64.62;99309.34;5018774;28;20041;-76
2021/03/11 00:21:57;;;;;;;3.27;2.90;;;;;;;6.48;64.21;99388.78;5018735;28;20025;-77
2021/03/11 00:24:23;;;;;;;3.90;2.97;;;;;;;6.06;64.37;99326.63;5001367;28;20030;-77
2021/03/11 00:26:48;;;;;;;3.70;3.28;;;;;;;6.52;64.21;99384.88;5018797;28;20502;-75
2021/03/11 00:29:14;;;;;;;3.97;3.13;;;;;;;6.53;64.33;99374.25;5018716;28;20030;-77
2021/03/11 00:31:39;;;;;;;2.60;2.40;;;;;;;5.52;63.72;99207.19;5018583;28;20033;-76
2021/03/11 00:34:05;;;;;;;2.70;2.50;;;;;;;6.03;64.07;99285.81;5001299;28;20450;-78
2021/03/11 00:36:30;;;;;;;3.00;2.70;;;;;;;6.10;64.17;99301.75;5001027;28;20026;-77
2021/03/11 00:38:55;;;;;;;2.87;2.57;;;;;;;6.60;64.07;99379.69;5018471;28;20425;-76
2021/03/11 00:41:21;;;;;;;3.60;3.30;;;;;;;6.09;64.30;99312.38;5018379;28;20428;-75
2021/03/11 00:43:46;;;;;;;3.43;2.90;;;;;;;6.53;64.45;99389.97;5018434;28;20368;-79
2021/03/11 00:46:11;;;;;;;3.97;2.83;;;;;;;5.78;63.88;99285.75;5018425;28;20038;-76
2021/03/11 00:48:37;;;;;;;2.90;2.60;;;;;;;6.23;64.01;99344.09;5018321;28;20041;-75
2021/03/11 00:51:02;;;;;;;3.33;2.97;;;;;;;6.34;64.15;99384.94;5021481;28;20026;-77
2021/03/11 00:53:28;;;;;;;4.13;3.13;;;;;;;5.69;64.23;99274.41;5005387;28;20032;-76
2021/03/11 00:55:53;;;;;;;3.40;2.77;;;;;;;6.43;64.01;99406.81;5018682;28;20026;-76
2021/03/11 00:58:18;;;;;;;3.80;3.50;;;;;;;6.41;64.38;99411.38;5000729;28;20034;-76
2021/03/11 01:00:44;;;;;;;3.80;2.93;;;;;;;6.24;64.08;99389.47;5018515;28;20034;-77
2021/03/11 01:03:09;;;;;;;3.87;3.33;;;;;;;6.44;64.29;99411.88;5000817;28;20129;-76
2021/03/11 01:05:35;;;;;;;4.20;3.80;;;;;;;6.32;63.88;99394.78;5017877;28;20032;-76
2021/03/11 01:08:00;;;;;;;4.10;3.70;;;;;;;6.28;64.07;99390.81;5018036;28;20463;-77
2021/03/11 01:10:26;;;;;;;3.97;3.57;;;;;;;6.20;64.29;99398.63;5017760;28;20026;-77
2021/03/11 01:12:51;;;;;;;3.45;3.15;;;;;;;6.05;64.23;99372.97;5000433;28;20053;-77
2021/03/11 01:15:17;;;;;;;3.90;3.50;;;;;;;5.83;63.87;99335.91;5000505;28;20060;-77
2021/03/11 01:17:42;;;;;;;4.05;3.65;;;;;;;6.29;64.05;99410.81;5017791;28;20088;-79
2021/03/11 01:20:12;;;;;;;3.30;3.00;;;;;;;6.21;64.16;99410.75;5000677;28;20025;-78
2021/03/11 01:22:38;;;;;;;3.70;3.27;;;;;;;6.07;64.32;99406.06;5017613;28;20024;-78
2021/03/11 01:25:04;;;;;;;3.37;3.07;;;;;;;5.60;64.10;99328.53;5017619;28;20029;-79
2021/03/11 01:27:31;;;;;;;3.87;3.47;;;;;;;6.05;64.21;99424.56;5016949;28;20069;-78
2021/03/11 01:29:57;;;;;;;3.10;2.80;;;;;;;5.66;64.24;99359.34;5017717;28;20340;-79
2021/03/11 01:32:22;;;;;;;3.20;2.90;;;;;;;5.27;64.11;99296.00;5017380;28;20036;-79
2021/03/11 01:34:47;;;;;;;4.40;3.63;;;;;;;5.78;63.86;99380.88;5017738;28;20033;-78
2021/03/11 01:37:13;;;;;;;4.50;4.10;;;;;;;5.40;64.25;99327.88;5017603;28;20030;-78
2021/03/11 01:39:38;;;;;;;3.93;3.53;;;;;;;5.81;64.45;99396.31;5017369;28;20488;-78
2021/03/11 01:42:04;;;;;;;4.70;4.00;;;;;;;5.55;64.12;99351.72;5017345;28;20091;-77
2021/03/11 01:44:29;;;;;;;4.33;3.73;;;;;;;5.75;64.42;99415.25;5017366;28;20025;-77
2021/03/11 01:46:55;;;;;;;4.93;4.20;;;;;;;5.25;64.28;99336.41;5017710;28;20113;-77
2021/03/11 01:49:20;;;;;;;4.53;4.13;;;;;;;5.58;64.61;99395.94;5016142;28;20200;-77
2021/03/11 01:51:46;;;;;;;4.90;4.17;;;;;;;5.65;64.54;99412.72;5017174;28;20100;-77
2021/03/11 01:54:12;;;;;;;6.83;4.83;;;;;;;5.55;64.17;99392.81;5017556;28;20041;-77
2021/03/11 01:56:39;;;;;;;4.60;4.10;;;;;;;5.53;64.77;99406.03;5017288;28;20044;-77
2021/03/11 01:59:04;;;;;;;5.07;4.60;;;;;;;5.58;64.52;99416.06;5021004;28;20026;-79
2021/03/11 02:01:30;;;;;;;4.50;3.73;;;;;;;5.36;64.39;99380.69;5017979;28;20026;-78
2021/03/11 02:03:55;;;;;;;4.63;3.80;;;;;;;5.58;64.25;99421.31;5018546;28;20021;-76
2021/03/11 02:06:21;;;;;;;4.77;4.27;;;;;;;5.01;64.19;99368.34;5019241;28;20033;-79
2021/03/11 02:08:46;;;;;;;6.00;4.30;;;;;;;5.35;64.32;99402.59;5039821;23;20375;-79
2021/03/11 02:13:43;;;;;;;5.72;3.83;;;;;;;5.43;64.36;99437.53;5068354;22;20045;-80
2021/03/11 02:18:51;;;;;;;2.83;2.30;;;;;;;5.29;64.25;99443.28;5031754;22;20064;-80
2021/03/11 02:21:23;;;;;;;2.23;2.00;;;;;;;4.92;64.40;99392.78;5040914;23;20053;-79
2021/03/11 02:24:25;;;;;;;2.38;1.67;;;;;;;5.11;64.69;99432.72;5044198;28;20022;-79
2021/03/11 02:27:00;;;;;;;;;;;;;;;4.78;65.75;99443.78;5035319;23;20069;-78
2021/03/11 02:29:29;;;;;;;1.93;1.83;;;;;;;4.89;65.12;99455.84;5054677;22;19909;-79
2021/03/11 02:32:00;;;;;;;1.80;1.50;;;;;;;4.92;65.38;99456.38;5047305;28;20052;-79
2021/03/11 02:34:31;;;;;;;1.90;1.67;;;;;;;4.74;65.21;99465.94;5048567;28;20033;-79
2021/03/11 02:37:02;;;;;;;2.10;1.90;;;;;;;4.72;65.44;99454.81;5074582;22;20077;-79
2021/03/11 02:39:29;;;;;;;2.07;1.80;;;;;;;4.69;65.33;99439.41;5071931;22;20032;-78
2021/03/11 02:41:57;;;;;;;1.90;1.70;;;;;;;4.25;65.62;99367.69;5073119;22;20429;-78
2021/03/11 02:44:24;;;;;;;2.53;2.20;;;;;;;4.63;65.20;99419.06;5046142;23;20037;-79
2021/03/11 02:46:52;;;;;;;2.07;1.87;;;;;;;4.79;65.26;99454.09;5042820;23;20497;-79
2021/03/11 02:49:20;;;;;;;2.13;1.87;;;;;;;4.74;65.52;99451.06;5035879;23;20045;-78
2021/03/11 02:51:49;;;;;;;2.17;1.93;;;;;;;4.13;65.18;99364.41;5045677;28;20156;-78
2021/03/11 02:54:16;;;;;;;2.40;1.80;;;;;;;4.72;65.23;99449.56;5045982;28;20091;-79
2021/03/11 02:56:44;;;;;;;4.23;2.57;;;;;;;4.42;65.40;99420.03;5057419;22;20021;-78
2021/03/11 02:59:10;;;;;;;2.00;1.90;;;;;;;4.74;65.32;99466.78;5049778;28;20071;-78
2021/03/11 03:01:37;;;;;;;2.07;1.87;;;;;;;4.52;66.08;99476.75;5071949;22;20045;-78
2021/03/11 03:04:04;;;;;;;2.00;1.80;;;;;;;4.53;65.77;99474.00;5071979;22;20045;-78
2021/03/11 03:06:31;;;;;;;2.67;2.20;;;;;;;4.66;64.58;99481.53;5064643;28;20021;-78
2021/03/11 03:08:56;;;;;;;3.13;2.20;;;;;;;4.38;65.91;99472.75;5072318;22;20072;-78
2021/03/11 03:11:23;;;;;;;3.10;2.50;;;;;;;3.59;65.71;99378.06;5087416;22;20047;-78
2021/03/11 03:13:51;;;;;;;2.63;2.30;;;;;;;4.24;65.75;99436.59;5044087;28;20040;-78
2021/03/11 03:16:17;;;;;;;3.23;2.47;;;;;;;4.50;65.69;99468.22;5036567;23;20048;-78
2021/03/11 03:18:43;;;;;;;2.20;2.00;;;;;;;4.36;66.11;99467.66;5043458;28;20029;-78
2021/03/11 03:21:11;;;;;;;2.47;1.90;;;;;;;4.55;65.73;99497.38;5026495;28;20032;-79
2021/03/11 03:23:39;;;;;;;2.10;1.90;;;;;;;4.45;65.87;99479.88;5009757;23;20066;-79
2021/03/11 03:26:05;;;;;;;2.20;2.00;;;;;;;4.57;65.52;99498.88;4986361;28;20038;-78
2021/03/11 03:28:31;;;;;;;2.60;2.40;;;;;;;4.61;65.96;99504.66;4998120;23;20016;-78
2021/03/11 03:30:57;;;;;;;2.20;2.00;;;;;;;4.62;65.14;99499.28;5032214;23;20037;-79
2021/03/11 03:35:53;;;;;;;3.00;1.90;;;;;;;4.46;65.40;99481.56;5067080;28;20057;-80
2021/03/11 03:40:48;;;;;;;2.63;2.10;;;;;;;4.01;65.90;99436.09;5073348;22;20057;-78
2021/03/11 03:43:21;;;;;;;3.37;3.00;;;;;;;4.42;66.81;99508.09;5074347;22;20091;-78
2021/03/11 03:46:06;;;;;;;2.27;2.07;;;;;;;4.42;66.53;99505.50;5048320;23;20044;-78
2021/03/11 03:48:39;;;;;;;2.37;2.17;;;;;;;4.21;65.79;99481.31;5041301;23;20051;-78
2021/03/11 03:51:05;;;;;;;2.23;2.03;;;;;;;4.50;65.84;99521.31;5033900;23;20427;-78
2021/03/11 03:53:39;;;;;;;2.30;2.10;;;;;;;4.18;66.50;99478.97;5044698;28;20025;-79
2021/03/11 03:56:09;;;;;;;2.80;2.50;;;;;;;4.40;66.35;99507.41;5027325;28;20029;-78
2021/03/11 03:58:36;;;;;;;2.20;2.00;;;;;;;4.00;65.99;99463.16;5027096;28;20102;-78
2021/03/11 04:01:02;;;;;;;3.30;2.53;;;;;;;4.02;65.89;99438.56;5045390;28;20025;-78
2021/03/11 04:03:28;;;;;;;2.30;2.10;;;;;;;4.45;66.36;99529.56;5045255;28;20025;-78
2021/03/11 04:05:55;;;;;;;3.17;2.40;;;;;;;4.10;66.15;99475.25;5072532;22;20057;-78
2021/03/11 04:10:50;;;;;;;3.43;2.37;;;;;;;4.11;66.26;99481.31;5062790;28;20447;-78
2021/03/11 04:13:16;;;;;;;3.00;2.30;;;;;;;4.55;66.24;99545.25;5038837;23;20045;-79
2021/03/11 04:15:42;;;;;;;3.50;2.10;;;;;;;3.94;65.82;99459.31;5027618;28;20036;-78
2021/03/11 04:18:09;;;;;;;2.50;2.30;;;;;;;3.82;66.13;99456.03;5044322;28;20104;-78
2021/03/11 04:20:35;;;;;;;2.33;2.13;;;;;;;4.38;65.97;99540.72;5063493;22;20059;-78
2021/03/11 04:23:01;;;;;;;3.17;2.87;;;;;;;4.29;66.04;99515.41;5071589;22;20056;-78
2021/03/11 04:25:27;;;;;;;2.17;1.97;;;;;;;4.51;65.74;99564.81;5053054;22;20021;-78
2021/03/11 04:27:53;;;;;;;2.87;2.37;;;;;;;4.58;66.17;99565.06;5044916;28;20033;-78
2021/03/11 04:30:19;;;;;;;2.40;2.20;;;;;;;3.68;65.79;99430.28;5040675;23;20034;-78
2021/03/11 04:32:46;;;;;;;2.47;1.90;;;;;;;4.29;65.89;99536.31;5042533;28;20052;-78
2021/03/11 04:35:12;;;;;;;2.87;2.60;;;;;;;4.22;65.84;99537.81;5026114;28;20025;-78
2021/03/11 04:37:39;;;;;;;3.53;2.80;;;;;;;4.55;65.84;99579.25;5049847;23;20403;-78
2021/03/11 04:40:06;;;;;;;2.50;2.30;;;;;;;4.57;65.59;99576.50;5063776;23;20041;-79
2021/03/11 04:42:34;;;;;;;3.67;3.00;;;;;;;4.61;65.87;99577.88;5062485;28;20083;-78
2021/03/11 04:45:01;;;;;;;3.10;2.80;;;;;;;4.42;66.15;99569.06;5072163;22;20052;-80
2021/03/11 04:47:29;;;;;;;3.20;2.90;;;;;;;4.07;65.86;99516.50;5066841;28;20035;-78
2021/03/11 04:49:56;;;;;;;2.50;2.23;;;;;;;4.44;66.10;99593.25;5064585;28;20111;-79
2021/03/11 04:52:21;;;;;;;3.40;2.33;;;;;;;4.31;66.57;99597.13;5053371;23;20053;-78
2021/03/11 04:54:47;;;;;;;2.90;2.60;;;;;;;4.21;66.19;99554.47;5064470;28;20029;-78
2021/03/11 04:57:14;;;;;;;3.00;2.70;;;;;;;4.39;65.87;99592.84;5071806;22;20041;-80
2021/03/11 04:59:40;;;;;;;2.57;2.33;;;;;;;4.11;66.35;99572.75;5064488;28;20035;-77
2021/03/11 05:02:09;;;;;;;2.43;2.23;;;;;;;4.43;66.02;99604.69;5071571;22;20041;-77
2021/03/11 05:04:35;;;;;;;2.77;2.53;;;;;;;3.77;66.14;99507.84;5091861;22;20058;-79
2021/03/11 05:07:01;;;;;;;3.17;2.87;;;;;;;4.37;66.49;99610.47;5067493;28;20029;-78
2021/03/11 05:09:26;;;;;;;2.50;2.30;;;;;;;4.03;66.12;99547.31;5075139;22;20129;-79
2021/03/11 05:11:51;;;;;;;2.80;2.47;;;;;;;4.21;66.08;99584.03;5066581;28;20025;-79
2021/03/11 05:16:51;;;;;;;2.90;2.30;;;;;;;4.09;66.37;99582.50;5055833;22;20060;-79
2021/03/11 05:19:16;;;;;;;2.67;2.30;;;;;;;4.41;65.71;99624.09;5060938;23;20049;-79
2021/03/11 05:21:42;;;;;;;4.00;3.50;;;;;;;4.00;66.16;99558.03;5067066;28;20428;-79
2021/03/11 05:24:08;;;;;;;3.83;3.00;;;;;;;3.95;66.06;99536.72;5066620;28;20020;-79
2021/03/11 05:26:33;;;;;;;4.47;3.73;;;;;;;3.19;65.57;99424.19;5049099;28;20033;-79
2021/03/11 05:29:00;;;;;;;4.53;3.63;;;;;;;4.58;65.98;99633.88;5068233;23;20091;-79
2021/03/11 05:31:26;;;;;;;5.73;4.30;;;;;;;4.63;65.69;99633.47;5055941;22;20032;-78
2021/03/11 05:33:51;;;;;;;4.53;4.07;;;;;;;4.02;65.89;99553.50;5066546;28;20025;-79
2021/03/11 05:38:47;;;;;;;4.77;3.63;;;;;;;4.47;65.66;99636.63;5057760;22;20413;-80
2021/03/11 05:41:13;;;;;;;4.97;3.90;;;;;;;4.43;65.62;99609.91;5096992;23;20054;-78
2021/03/11 05:43:40;;;;;;;6.03;4.57;;;;;;;4.50;65.79;99640.75;5061463;23;20033;-77
2021/03/11 05:46:07;;;;;;;5.60;3.83;;;;;;;4.41;66.30;99648.44;5072080;22;20041;-77
2021/03/11 05:48:34;;;;;;;6.50;4.70;;;;;;;4.41;66.11;99630.13;5069466;22;20040;-77
2021/03/11 05:51:01;;;;;;;5.33;4.40;;;;;;;4.46;65.75;99616.69;5008292;28;20117;-77
2021/03/11 05:53:26;;;;;;;5.90;4.37;;;;;;;4.56;65.74;99640.22;5009286;28;20470;-78
2021/03/11 05:55:52;;;;;;;7.67;4.40;;;;;;;4.22;65.44;99571.81;5024516;28;20034;-78
2021/03/11 05:58:21;;;;;;;8.67;5.50;;;;;;;4.27;65.74;99567.00;5025485;28;20026;-77
2021/03/11 06:00:46;;;;;;;6.40;4.63;;;;;;;4.87;65.32;99661.81;5006765;28;20514;-77
2021/03/11 06:03:11;;;;;;;4.17;3.63;;;;;;;4.75;65.01;99661.13;5036730;23;20049;-78
2021/03/11 06:05:38;;;;;;;4.70;4.07;;;;;;;4.37;65.12;99605.22;5044098;28;20026;-78
2021/03/11 06:08:07;;;;;;;4.57;3.87;;;;;;;4.68;65.12;99673.94;5041969;28;20021;-78
2021/03/11 06:10:34;;;;;;;5.07;3.63;;;;;;;4.44;65.67;99648.16;5041889;28;20051;-77
2021/03/11 06:13:02;;;;;;;6.07;4.40;;;;;;;4.59;65.12;99674.75;5025199;28;20416;-79
2021/03/11 06:15:37;;;;;;;7.07;4.20;;;;;;;4.21;65.41;99619.81;5005125;28;20408;-79
2021/03/11 06:18:07;;;;;;;6.23;4.10;;;;;;;4.57;66.11;99712.47;5026028;28;20030;-79
2021/03/11 06:20:33;;;;;;;8.70;6.47;;;;;;;4.62;65.53;99705.03;5041032;28;20025;-77
2021/03/11 06:22:59;;;;;;;6.40;4.73;;;;;;;4.42;65.29;99707.59;5041528;28;20030;-77
2021/03/11 06:25:25;;;;;;;5.27;4.13;;;;;;;3.80;65.67;99593.75;5041075;28;20321;-78
2021/03/11 06:27:51;;;;;;;6.17;5.30;;;;;;;4.37;65.74;99694.09;5017704;28;20025;-78
2021/03/11 06:30:39;;;;;;;7.90;5.50;;;;;;;4.62;66.80;99739.88;5043758;23;20041;-79
2021/03/11 06:33:06;;;;;;;5.77;4.53;;;;;;;4.72;65.56;99758.19;5041861;23;20046;-79
2021/03/11 06:35:33;;;;;;;6.23;4.63;;;;;;;4.66;65.73;99743.88;5059110;23;20040;-79
2021/03/11 06:37:59;;;;;;;6.63;4.40;;;;;;;4.66;65.30;99746.47;5063858;28;20029;-78
2021/03/11 06:40:27;;;;;;;4.47;4.07;;;;;;;4.78;65.34;99758.47;5079866;28;20028;-78
2021/03/11 06:43:07;;;;;;;6.03;4.00;;;;;;;4.73;65.98;99770.31;5062776;28;20032;-79
2021/03/11 06:45:34;;;;;;;4.03;3.27;;;;;;;4.29;65.62;99714.88;5060107;28;20028;-78
2021/03/11 06:48:18;;;;;;;4.00;3.60;;;;;;;4.68;65.98;99781.16;5066969;28;20124;-79
2021/03/11 06:50:43;;;;;;;6.53;5.23;;;;;;;4.38;65.48;99750.66;5054481;28;20036;-79
2021/03/11 06:53:09;;;;;;;6.33;5.10;;;;;;;4.66;65.89;99787.50;5082006;28;20051;-79
2021/03/11 06:55:35;;;;;;;8.93;6.33;;;;;;;4.63;65.47;99796.44;5063911;28;20099;-78
2021/03/11 06:58:24;;;;;;;7.70;5.53;;;;;;;4.63;66.00;99785.97;5057479;28;20029;-78
2021/03/11 07:01:04;;;;;;;5.63;4.70;;;;;;;4.82;65.29;99827.03;5067299;28;20037;-77
2021/03/11 07:03:43;;;;;;;6.70;5.07;;;;;;;4.91;65.52;99810.53;5046590;28;20033;-76
2021/03/11 07:06:08;;;;;;;8.97;6.67;;;;;;;4.86;65.43;99817.97;5047553;28;20025;-77
2021/03/11 07:08:34;;;;;;;7.23;5.87;;;;;;;4.42;65.09;99735.53;5046323;28;20043;-77
2021/03/11 07:11:06;;;;;;;10.00;7.40;;;;;;;4.95;65.63;99825.00;5020182;28;20435;-76
2021/03/11 07:13:41;;;;;;;;;;;;;;;4.79;66.09;99827.31;5042768;28;20395;-74
2021/03/11 07:16:18;;;;;;;5.27;4.70;;;;;;;4.65;65.53;99802.34;5042118;28;19924;-77
2021/03/11 07:18:44;;;;;;;8.40;6.50;;;;;;;4.71;65.14;99801.00;5048538;28;20117;-76
2021/03/11 07:21:11;;;;;;;7.97;6.90;;;;;;;4.65;64.59;99788.47;5041384;28;20037;-79
2021/03/11 07:23:49;;;;;;;6.90;5.07;;;;;;;4.90;65.62;99834.22;5046243;28;20017;-77
2021/03/11 07:26:16;;;;;;;6.70;4.93;;;;;;;4.93;65.58;99849.66;5034774;23;20049;-77
2021/03/11 07:28:42;;;;;;;6.23;5.43;;;;;;;4.82;65.20;99834.06;5019251;28;20402;-77
2021/03/11 07:31:07;;;;;;;10.00;7.03;;;;;;;4.64;65.14;99769.31;5019970;28;20033;-77
2021/03/11 07:33:35;;;;;;;10.27;8.20;;;;;;;5.18;65.22;99851.75;5019626;28;20021;-76
2021/03/11 07:36:05;;;;;;;10.90;7.97;;;;;;;5.01;64.88;99850.63;5037041;28;20505;-78
2021/03/11 07:38:35;;;;;;;6.67;5.50;;;;;;;4.63;65.67;99816.53;5037474;28;20029;-78
2021/03/11 07:41:08;;;;;;;6.70;5.27;;;;;;;4.44;65.77;99799.78;5042820;23;20128;-78
2021/03/11 07:47:22;;;;;;;6.37;4.40;;;;;;;2.06;66.27;99481.59;5029754;23;20126;-78
2021/03/11 07:50:12;;;;;;;6.00;5.10;;;;;;;2.08;65.96;99496.16;4953790;28;20042;-79
2021/03/11 07:55:15;;;;;;;7.40;5.53;;;;;;;4.55;65.58;99890.41;5227421;23;20439;-78
2021/03/11 07:57:51;;;;;;;7.80;6.03;;;;;;;4.41;65.70;99841.88;5111346;23;20059;-78
2021/03/11 08:00:28;;;;;;;6.47;5.83;;;;;;;4.37;65.58;99821.38;5071353;28;20028;-77
2021/03/11 08:03:04;;;;;;;7.50;6.00;;;;;;;4.94;65.64;99914.09;5053400;28;20406;-77
2021/03/11 08:05:31;;;;;;;6.87;5.17;;;;;;;4.98;65.44;99918.09;5066859;28;20032;-78
2021/03/11 08:08:41;;;;;;;11.13;6.70;;;;;;;4.93;66.49;99921.13;5052819;28;20040;-77
2021/03/11 08:11:07;;;;;;;8.57;6.60;;;;;;;4.73;65.72;99888.81;5002325;28;20053;-77
2021/03/11 08:13:35;;;;;;;7.13;6.30;;;;;;;4.95;65.73;99927.03;5051979;28;20037;-76
2021/03/11 08:16:24;;;;;;;8.03;5.90;;;;;;;4.79;65.52;99897.94;5073169;28;20430;-78
2021/03/11 08:18:51;;;;;;;9.63;6.90;;;;;;;4.51;65.41;99869.88;5065589;28;20098;-76
2021/03/11 08:21:25;;;;;;;6.97;5.97;;;;;;;4.97;65.84;99935.59;5080979;23;20039;-76
2021/03/11 08:23:53;;;;;;;7.13;5.87;;;;;;;4.67;65.01;99873.66;5027387;28;20048;-77
2021/03/11 08:26:40;;;;;;;6.60;5.20;;;;;;;5.16;65.40;99941.84;5020664;28;20044;-77
2021/03/11 08:29:17;;;;;;;6.07;4.50;;;;;;;5.20;65.53;99949.31;5022215;28;20026;-77
2021/03/11 08:31:45;;;;;;;5.50;4.90;;;;;;;5.24;65.21;99949.88;5021161;28;20057;-76
2021/03/11 08:34:33;;;;;;;6.63;4.80;;;;;;;5.18;65.29;99939.91;5029347;28;20048;-76
2021/03/11 08:37:22;;;;;;;8.13;5.00;;;;;;;5.31;66.49;99956.25;5049272;23;20052;-78
2021/03/11 08:39:49;;;;;;;6.97;5.47;;;;;;;5.17;64.75;99936.47;5053863;28;20044;-75
2021/03/11 08:42:49;;;;;;;6.77;5.30;;;;;;;5.27;65.73;99971.38;5039318;28;20039;-76
2021/03/11 08:45:34;;;;;;;6.70;4.20;;;;;;;5.33;65.70;99980.50;5037577;28;20448;-77
2021/03/11 08:48:22;;;;;;;5.87;5.27;;;;;;;5.39;66.05;99985.19;5057274;28;20036;-75
2021/03/11 08:50:52;;;;;;;5.83;4.67;;;;;;;5.05;65.74;99958.47;5054684;28;20462;-75
2021/03/11 08:53:42;;;;;;;5.67;4.50;;;;;;;4.55;66.24;99895.63;5058377;28;20029;-75
2021/03/11 08:56:19;;;;;;;7.93;5.80;;;;;;;5.16;66.74;99991.56;5055079;28;20025;-77
2021/03/11 08:58:57;;;;;;;7.73;5.60;;;;;;;5.23;65.46;99993.56;5046007;28;20059;-74
2021/03/11 09:01:31;;;;;;;5.87;5.27;;;;;;;5.24;66.02;99989.97;5041427;28;20037;-75
2021/03/11 09:04:01;;;;;;;6.83;5.50;;;;;;;5.29;65.70;100000.06;5039148;28;20055;-76
2021/03/11 09:07:02;;;;;;;10.07;6.97;;;;;;;5.37;65.25;99994.97;5025601;28;20116;-74
2021/03/11 09:09:45;;;;;;;7.47;5.90;;;;;;;5.18;66.19;99981.78;5044584;28;20037;-74
2021/03/11 09:12:20;;;;;;;7.10;5.17;;;;;;;5.23;65.08;99971.78;5041221;28;20167;-77
2021/03/11 09:14:54;;;;;;;9.10;6.40;;;;;;;5.19;65.16;99965.97;5043346;28;20083;-74
2021/03/11 09:17:25;;;;;;;41.33;24.53;;;;;;;5.26;64.97;99966.28;5040130;28;20021;-73
2021/03/11 09:20:01;;;;;;;40.00;24.70;;;;;;;5.49;64.91;100000.94;5026785;28;20478;-76
2021/03/11 09:22:32;;;;;;;12.17;9.10;;;;;;;4.94;65.00;99930.63;5036401;28;20025;-77
2021/03/11 09:24:57;;;;;;;12.77;9.53;;;;;;;5.41;65.24;99998.97;5038536;28;20075;-75
2021/03/11 09:27:30;;;;;;;10.77;7.60;;;;;;;4.79;64.92;99896.16;5041917;28;20439;-75
2021/03/11 09:29:57;;;;;;;10.93;8.10;;;;;;;5.38;65.12;99986.97;5026256;28;20112;-78
2021/03/11 09:32:32;;;;;;;10.90;7.60;;;;;;;5.22;65.79;99989.28;5024298;28;20025;-77
2021/03/11 09:35:00;;;;;;;14.23;9.83;;;;;;;5.49;64.99;100012.22;5056923;28;20029;-77
2021/03/11 09:37:52;;;;;;;9.40;7.40;;;;;;;5.15;65.83;99948.03;5069495;28;20153;-77
2021/03/11 09:40:35;;;;;;;8.70;6.83;;;;;;;5.53;64.89;100013.63;5042134;28;20457;-76
2021/03/11 09:43:08;;;;;;;8.30;6.60;;;;;;;5.62;64.85;100025.09;5037164;28;20052;-75
2021/03/11 09:45:36;;;;;;;7.80;6.27;;;;;;;5.66;64.84;100021.22;5045958;28;20032;-76
2021/03/11 09:48:30;;;;;;;7.73;6.53;;;;;;;5.67;65.05;100028.94;5050065;28;20028;-77
2021/03/11 09:51:06;;;;;;;8.47;6.70;;;;;;;5.68;64.68;100021.91;5009435;28;20112;-75
2021/03/11 09:53:44;;;;;;;9.33;7.23;;;;;;;5.69;64.71;100026.19;5042875;28;20033;-75
2021/03/11 09:56:21;;;;;;;9.97;7.90;;;;;;;5.73;65.09;100035.44;5026891;28;20029;-75
2021/03/11 09:58:52;;;;;;;9.67;7.60;;;;;;;5.81;64.63;100043.47;5021856;28;20026;-76
2021/03/11 10:01:31;;;;;;;11.77;8.40;;;;;;;5.56;64.43;100000.25;5039286;28;20029;-77
2021/03/11 10:03:59;;;;;;;11.30;8.53;;;;;;;5.91;64.66;100031.22;5041237;28;20104;-76
2021/03/11 10:06:25;;;;;;;11.83;7.57;;;;;;;5.97;64.16;100048.22;5031324;28;20091;-77
2021/03/11 10:08:58;;;;;;;9.63;7.17;;;;;;;5.43;64.43;99961.22;5050686;28;20124;-75
2021/03/11 10:11:39;;;;;;;11.67;7.70;;;;;;;5.97;64.11;100051.69;5023190;28;20039;-77
2021/03/11 10:14:17;;;;;;;11.83;9.23;;;;;;;5.95;64.42;100045.75;5026993;28;20407;-76
2021/03/11 10:16:45;;;;;;;11.93;8.03;;;;;;;5.69;64.33;100024.41;5021508;28;20032;-77
2021/03/11 10:19:15;;;;;;;9.87;7.80;;;;;;;5.91;64.60;100067.09;5038760;28;20083;-75
2021/03/11 10:21:46;;;;;;;8.27;5.80;;;;;;;5.28;65.06;99973.03;5035545;28;20115;-78
2021/03/11 10:24:13;;;;;;;7.93;5.10;;;;;;;5.89;64.55;100063.75;5023291;28;20108;-77
2021/03/11 10:26:39;;;;;;;8.87;6.67;;;;;;;5.84;64.77;100056.28;5019676;28;20025;-75
2021/03/11 10:29:07;;;;;;;6.87;5.47;;;;;;;5.91;64.65;100072.34;5046769;28;20143;-76
2021/03/11 10:31:33;;;;;;;8.57;6.20;;;;;;;5.87;64.46;100081.41;5046737;28;20021;-76
2021/03/11 10:34:06;;;;;;;7.53;5.43;;;;;;;5.89;64.49;100082.09;5035742;28;20137;-76
2021/03/11 10:36:33;;;;;;;7.63;5.60;;;;;;;5.86;64.38;100074.50;5028401;28;20025;-79
2021/03/11 10:39:08;;;;;;;8.10;6.67;;;;;;;5.84;65.32;100065.94;5036900;28;20032;-76
2021/03/11 10:41:38;;;;;;;8.57;6.27;;;;;;;5.31;64.64;99982.41;5041096;28;20021;-76
2021/03/11 10:44:14;;;;;;;11.17;8.63;;;;;;;5.48;64.83;99992.25;5022075;28;20334;-77
2021/03/11 10:46:42;;;;;;;13.17;8.50;;;;;;;5.73;64.55;100022.34;5042638;28;20040;-78
2021/03/11 10:49:08;;;;;;;10.20;8.07;;;;;;;5.10;64.18;99904.78;5036625;28;20686;-75
2021/03/11 10:51:34;;;;;;;10.70;7.30;;;;;;;6.20;64.12;100061.91;5040479;28;20021;-75
2021/03/11 10:54:01;;;;;;;13.50;8.70;;;;;;;6.31;63.94;100072.25;5030416;28;20564;-76
2021/03/11 10:56:27;;;;;;;8.07;6.30;;;;;;;5.80;63.80;99980.72;5044520;28;20450;-77
2021/03/11 10:59:01;;;;;;;6.90;6.20;;;;;;;6.46;63.61;100077.91;5039206;28;20060;-76
2021/03/11 11:01:28;;;;;;;8.33;5.57;;;;;;;6.15;63.52;100023.00;5040134;28;20374;-74
2021/03/11 11:03:55;;;;;;;8.87;6.30;;;;;;;6.49;63.63;100062.72;5020496;28;20017;-77
2021/03/11 11:06:21;;;;;;;8.23;6.03;;;;;;;6.49;63.84;100060.09;5023684;28;20025;-77
2021/03/11 11:08:47;;;;;;;7.47;5.87;;;;;;;6.58;63.59;100072.38;5021544;28;20384;-78
2021/03/11 11:11:15;;;;;;;6.30;5.63;;;;;;;6.65;63.65;100070.88;5046156;28;20024;-77
2021/03/11 11:13:40;;;;;;;8.17;6.80;;;;;;;6.58;63.42;100050.56;5043325;28;20056;-75
2021/03/11 11:16:06;;;;;;;6.40;5.73;;;;;;;6.76;63.25;100083.03;5044257;28;20411;-76
2021/03/11 11:18:32;;;;;;;9.30;6.30;;;;;;;6.31;63.65;99985.72;5046547;28;20442;-77
2021/03/11 11:20:59;;;;;;;10.33;8.30;;;;;;;6.92;63.18;100064.06;5022424;28;20031;-76
2021/03/11 11:23:24;;;;;;;10.30;7.57;;;;;;;6.42;63.06;99969.84;5043282;28;20108;-75
2021/03/11 11:25:49;;;;;;;10.40;6.73;;;;;;;6.62;63.34;100010.81;5040043;28;20402;-76
2021/03/11 11:28:15;;;;;;;6.37;5.23;;;;;;;6.59;63.17;99992.72;5044639;28;20422;-77
2021/03/11 11:30:41;;;;;;;6.33;4.60;;;;;;;6.76;62.01;100004.31;5019926;28;20029;-77
2021/03/11 11:33:07;;;;;;;5.50;4.97;;;;;;;6.62;61.61;99981.13;5033184;28;20632;-76
2021/03/11 11:35:33;;;;;;;4.97;4.30;;;;;;;6.70;61.82;99973.38;5036183;28;20028;-76
2021/03/11 11:37:58;;;;;;;7.30;4.40;;;;;;;7.10;61.86;100024.78;5046814;28;20348;-77
2021/03/11 11:40:24;;;;;;;6.53;5.70;;;;;;;6.95;61.70;100009.50;5037251;28;20067;-76
2021/03/11 11:42:49;;;;;;;5.73;3.90;;;;;;;7.04;61.00;100014.84;5019729;28;20029;-77
2021/03/11 11:45:15;;;;;;;5.17;4.40;;;;;;;7.41;60.74;100054.22;5037015;28;20350;-76
2021/03/11 11:47:41;;;;;;;5.70;4.80;;;;;;;7.48;61.23;100058.78;5044215;28;20396;-80
2021/03/11 11:50:09;;;;;;;7.57;5.43;;;;;;;7.49;60.71;100039.44;5056581;28;20029;-76
2021/03/11 11:52:36;;;;;;;5.63;4.80;;;;;;;7.15;61.04;99991.03;5041073;28;20108;-79
2021/03/11 11:55:06;;;;;;;5.37;4.60;;;;;;;7.64;60.02;100074.75;5034459;28;20025;-75
2021/03/11 11:57:32;;;;;;;5.07;4.13;;;;;;;7.28;60.35;99999.41;5034211;28;20036;-74
2021/03/11 11:59:57;;;;;;;4.05;3.65;;;;;;;7.65;59.91;100055.38;5037505;28;20025;-75
2021/03/11 12:02:23;;;;;;;5.47;4.13;;;;;;;7.75;59.28;100068.47;5051457;28;20331;-79
2021/03/11 12:04:49;;;;;;;6.03;4.80;;;;;;;7.35;59.15;99992.59;5029814;28;20094;-76
2021/03/11 12:07:14;;;;;;;7.30;5.97;;;;;;;7.21;58.99;99986.03;5036403;28;20120;-76
2021/03/11 12:09:40;;;;;;;7.53;6.20;;;;;;;7.34;59.67;100009.34;5037957;28;20100;-79
2021/03/11 12:12:06;;;;;;;5.47;4.97;;;;;;;7.15;58.83;100004.16;5054398;28;20086;-80